| time (UTC) | temp F | wind direction | speed MPH | gust MPH | rain 1hr in | rain 24hr in | rain mn in | humidity % | barometer mb |
| 20260906113046 | 72 | 137 | 0.0 | 0.0 | 0.00 | 0.00 | 0.00 | 81 | 1012.4 |
| 20260906111512 | 72 | 137 | 0.0 | 0.0 | 0.00 | 0.00 | 0.00 | 81 | 1012.4 |
| 20260906110042 | 72 | 137 | 0.0 | 0.0 | 0.00 | 0.00 | 0.00 | 80 | 1012.2 |
| 20260906104514 | 72 | 137 | 0.0 | 0.0 | 0.00 | 0.00 | 0.00 | 81 | 1012.2 |
| 20260906103026 | 72 | 137 | 0.0 | 0.0 | 0.00 | 0.00 | 0.00 | 81 | 1012.3 |
| 20260906101552 | 72 | 137 | 0.0 | 0.0 | 0.00 | 0.00 | 0.00 | 81 | 1011.9 |
| 20260906100010 | 72 | 137 | 0.0 | 0.0 | 0.00 | 0.00 | 0.00 | 82 | 1011.9 |
| 20260906094606 | 71 | 137 | 0.0 | 0.0 | 0.00 | 0.00 | 0.00 | 82 | 1011.9 |
| 20260906093009 | 71 | 137 | 0.0 | 0.0 | 0.00 | 0.00 | 0.00 | 83 | 1011.8 |
| 20260906091543 | 71 | 137 | 0.0 | 0.0 | 0.00 | 0.00 | 0.00 | 84 | 1011.8 |
| 20260906090008 | 70 | 137 | 0.0 | 0.0 | 0.00 | 0.00 | 0.00 | 84 | 1011.4 |
| 20260906084537 | 70 | 137 | 0.0 | 0.0 | 0.00 | 0.00 | 0.00 | 85 | 1011.3 |
| 20260906083100 | 69 | 137 | 0.0 | 0.0 | 0.00 | 0.00 | 0.00 | 84 | 1011.3 |
| 20260906083002 | 69 | 137 | 0.0 | 0.0 | 0.00 | 0.00 | 0.00 | 84 | 1011.3 |
| 20260906081542 | 69 | 137 | 0.0 | 0.0 | 0.00 | 0.00 | 0.00 | 83 | 1011.0 |
| 20260906080058 | 69 | 137 | 0.0 | 0.0 | 0.00 | 0.00 | 0.00 | 83 | 1011.1 |
| 20260906074526 | 69 | 137 | 0.0 | 0.0 | 0.00 | 0.00 | 0.00 | 83 | 1011.1 |
| 20260906073058 | 70 | 137 | 0.0 | 0.0 | 0.00 | 0.00 | 0.00 | 83 | 1010.9 |
| 20260906071522 | 70 | 137 | 0.0 | 0.0 | 0.00 | 0.00 | 0.00 | 82 | 1011.0 |
| 20260906070052 | 70 | 137 | 0.0 | 0.0 | 0.00 | 0.00 | 0.00 | 82 | 1011.2 |
| 20260906064521 | 70 | 137 | 0.0 | 0.0 | 0.00 | 0.00 | 0.00 | 82 | 1011.2 |
| 20260906063046 | 70 | 137 | 0.0 | 0.0 | 0.00 | 0.00 | 0.00 | 81 | 1011.4 |
| 20260906061524 | 71 | 137 | 0.0 | 0.0 | 0.00 | 0.00 | 0.00 | 81 | 1011.4 |
| 20260906060037 | 71 | 137 | 0.0 | 0.0 | 0.00 | 0.00 | 0.00 | 80 | 1011.5 |
| 20260906054505 | 71 | 137 | 0.0 | 0.0 | 0.00 | 0.00 | 0.00 | 80 | 1011.6 |
| 20260906053027 | 71 | 137 | 0.0 | 0.0 | 0.00 | 0.00 | 0.00 | 79 | 1011.7 |
| 20260906051556 | 71 | 137 | 0.0 | 0.0 | 0.00 | 0.00 | 0.00 | 79 | 1011.4 |
| 20260906050022 | 72 | 137 | 0.0 | 0.0 | 0.00 | 0.00 | 0.00 | 77 | 1011.3 |
| 20260906044548 | 72 | 137 | 0.0 | 0.0 | 0.00 | 0.00 | 0.00 | 76 | 1011.5 |
| 20260906043011 | 73 | 137 | 0.0 | 0.0 | 0.00 | 0.00 | 0.00 | 75 | 1011.3 |
| 20260906041541 | 73 | 137 | 0.0 | 0.0 | 0.00 | 0.00 | 0.00 | 75 | 1011.4 |
| 20260906040011 | 73 | 137 | 0.0 | 0.0 | 0.00 | 0.00 | 0.00 | 74 | 1011.3 |
| 20260906034542 | 74 | 137 | 0.0 | 0.0 | 0.00 | 0.00 | 0.00 | 74 | 1011.7 |
| 20260906033059 | 74 | 137 | 0.0 | 0.0 | 0.00 | 0.00 | 0.00 | 73 | 1011.8 |
| 20260906031543 | 75 | 137 | 0.0 | 0.0 | 0.00 | 0.00 | 0.00 | 72 | 1011.8 |
| 20260906030053 | 75 | 137 | 0.0 | 0.0 | 0.00 | 0.00 | 0.00 | 70 | 1011.7 |
| 20260906024522 | 76 | 137 | 0.0 | 0.0 | 0.00 | 0.00 | 0.00 | 70 | 1011.4 |
| 20260906023050 | 76 | 137 | 0.0 | 0.0 | 0.00 | 0.00 | 0.00 | 67 | 1011.3 |
| 20260906021521 | 77 | 137 | 0.0 | 0.0 | 0.00 | 0.00 | 0.00 | 66 | 1011.2 |
| 20260906020053 | 78 | 137 | 0.0 | 0.0 | 0.00 | 0.00 | 0.00 | 64 | 1011.2 |
| 20260906014515 | 80 | 137 | 0.0 | 0.0 | 0.00 | 0.00 | 0.00 | 61 | 1010.7 |
| 20260906013041 | 80 | 137 | 0.0 | 0.0 | 0.00 | 0.00 | 0.00 | 57 | 1010.7 |
| 20260906011517 | 81 | 137 | 0.0 | 0.0 | 0.00 | 0.00 | 0.00 | 55 | 1010.6 |
| 20260906010039 | 81 | 137 | 0.0 | 0.0 | 0.00 | 0.00 | 0.00 | 53 | 1010.4 |
| 20260906004510 | 82 | 137 | 0.0 | 0.0 | 0.00 | 0.00 | 0.00 | 52 | 1010.4 |
| 20260906003043 | 82 | 137 | 0.0 | 0.0 | 0.00 | 0.00 | 0.00 | 51 | 1010.2 |
| 20260906001504 | 84 | 137 | 0.0 | 0.0 | 0.00 | 0.00 | 0.00 | 50 | 1010.1 |
| 20260906000033 | 85 | 137 | 0.0 | 0.0 | 0.00 | 0.00 | 0.00 | 47 | 1009.7 |
| 20260905234507 | 86 | 137 | 0.0 | 0.0 | 0.00 | 0.00 | 0.00 | 44 | 1009.6 |
| 20260905233036 | 87 | 137 | 0.0 | 0.0 | 0.00 | 0.00 | 0.00 | 43 | 1009.6 |
| 20260905231557 | 88 | 134 | 0.0 | 0.0 | 0.00 | 0.00 | 0.00 | 41 | 1009.6 |
| 20260905230027 | 89 | 134 | 0.0 | 2.0 | 0.00 | 0.00 | 0.00 | 41 | 1009.6 |
| 20260905224600 | 89 | 135 | 0.0 | 4.0 | 0.00 | 0.00 | 0.00 | 39 | 1009.6 |
| 20260905223035 | 91 | 71 | 2.0 | 10.0 | 0.00 | 0.00 | 0.00 | 37 | 1009.6 |
| 20260905221559 | 92 | 119 | 0.0 | 9.0 | 0.00 | 0.00 | 0.00 | 37 | 1009.6 |
| 20260905220018 | 92 | 109 | 0.0 | 8.0 | 0.00 | 0.00 | 0.00 | 38 | 1009.4 |
| 20260905214546 | 93 | 124 | 0.0 | 15.0 | 0.00 | 0.00 | 0.00 | 37 | 1009.4 |
| 20260905213010 | 93 | 110 | 0.0 | 6.0 | 0.00 | 0.00 | 0.00 | 37 | 1009.1 |
| 20260905211545 | 92 | 174 | 0.0 | 2.0 | 0.00 | 0.00 | 0.00 | 37 | 1009.0 |
| 20260905210110 | 92 | 188 | 1.0 | 3.0 | 0.00 | 0.00 | 0.00 | 35 | 1009.0 |
| 20260905210005 | 92 | 143 | 1.0 | 3.0 | 0.00 | 0.00 | 0.00 | 35 | 1009.0 |
| 20260905204530 | 92 | 134 | 0.0 | 0.0 | 0.00 | 0.00 | 0.00 | 36 | 1009.0 |
| 20260905203100 | 93 | 163 | 1.0 | 5.0 | 0.00 | 0.00 | 0.00 | 33 | 1009.0 |
| 20260905203002 | 93 | 177 | 0.0 | 4.0 | 0.00 | 0.00 | 0.00 | 33 | 1009.0 |
| 20260905201537 | 94 | 164 | 0.0 | 6.0 | 0.00 | 0.00 | 0.00 | 31 | 1009.0 |
| 20260905200130 | 94 | 163 | 0.0 | 16.0 | 0.00 | 0.00 | 0.00 | 31 | 1008.8 |
| 20260905200004 | 94 | 163 | 0.0 | 16.0 | 0.00 | 0.00 | 0.00 | 31 | 1008.8 |
| 20260905194526 | 94 | 205 | 1.0 | 12.0 | 0.00 | 0.00 | 0.00 | 31 | 1008.6 |
| 20260905193046 | 93 | 126 | 1.0 | 10.0 | 0.00 | 0.00 | 0.00 | 37 | 1008.7 |
| 20260905191516 | 93 | 171 | 2.0 | 10.0 | 0.00 | 0.00 | 0.00 | 38 | 1009.0 |
| 20260905190040 | 92 | 120 | 1.0 | 8.0 | 0.00 | 0.00 | 0.00 | 40 | 1009.4 |
| 20260905184504 | 89 | 195 | 0.0 | 9.0 | 0.00 | 0.00 | 0.00 | 45 | 1010.0 |
| 20260905183036 | 88 | 97 | 3.0 | 13.0 | 0.00 | 0.00 | 0.00 | 46 | 1010.4 |
| 20260905181556 | 89 | 98 | 0.0 | 8.0 | 0.00 | 0.00 | 0.00 | 45 | 1010.6 |
| 20260905180028 | 89 | 210 | 0.0 | 3.0 | 0.00 | 0.00 | 0.00 | 45 | 1010.6 |
| 20260905174556 | 89 | 188 | 0.0 | 0.0 | 0.00 | 0.00 | 0.00 | 43 | 1010.5 |
| 20260905173016 | 89 | 60 | 0.0 | 9.0 | 0.00 | 0.00 | 0.00 | 45 | 1010.2 |
| 20260905171557 | 89 | 121 | 0.0 | 4.0 | 0.00 | 0.00 | 0.00 | 45 | 1010.6 |
| 20260905170017 | 89 | 67 | 0.0 | 14.0 | 0.00 | 0.00 | 0.00 | 44 | 1011.1 |
| 20260905164548 | 89 | 157 | 0.0 | 0.0 | 0.00 | 0.00 | 0.00 | 44 | 1011.3 |
| 20260905163008 | 88 | 116 | 0.0 | 5.0 | 0.00 | 0.00 | 0.00 | 46 | 1011.6 |
| 20260905161540 | 90 | 81 | 0.0 | 8.0 | 0.00 | 0.00 | 0.00 | 44 | 1011.7 |
| 20260905160056 | 89 | 216 | 0.0 | 4.0 | 0.00 | 0.07 | 0.00 | 46 | 1012.0 |
| 20260905154544 | 88 | 196 | 0.0 | 0.0 | 0.00 | 0.07 | 0.00 | 51 | 1012.1 |
| 20260905153046 | 86 | 170 | 0.0 | 2.0 | 0.00 | 0.07 | 0.00 | 52 | 1012.4 |
| 20260905151518 | 87 | 209 | 0.0 | 8.0 | 0.00 | 0.07 | 0.00 | 52 | 1012.4 |
| 20260905150040 | 88 | 153 | 0.0 | 0.0 | 0.00 | 0.07 | 0.00 | 52 | 1012.0 |
| 20260905144506 | 88 | 106 | 0.0 | 0.0 | 0.00 | 0.07 | 0.00 | 51 | 1011.6 |
| 20260905143038 | 89 | 124 | 0.0 | 4.0 | 0.00 | 0.07 | 0.00 | 50 | 1011.7 |
| 20260905141512 | 89 | 154 | 1.0 | 9.0 | 0.00 | 0.07 | 0.00 | 48 | 1011.6 |
| 20260905140040 | 89 | 229 | 0.0 | 0.0 | 0.00 | 0.07 | 0.00 | 51 | 1011.5 |
| 20260905134602 | 87 | 218 | 0.0 | 0.0 | 0.00 | 0.07 | 0.00 | 55 | 1011.6 |
| 20260905134502 | 87 | 242 | 0.0 | 0.0 | 0.00 | 0.07 | 0.00 | 55 | 1011.6 |
| 20260905133023 | 85 | 242 | 0.0 | 0.0 | 0.00 | 0.07 | 0.00 | 61 | 1011.5 |
| 20260905131542 | 83 | 242 | 0.0 | 0.0 | 0.00 | 0.07 | 0.00 | 64 | 1011.5 |
| 20260905130017 | 80 | 242 | 0.0 | 0.0 | 0.00 | 0.07 | 0.00 | 70 | 1011.5 |
| 20260905124545 | 77 | 242 | 0.0 | 0.0 | 0.00 | 0.07 | 0.00 | 74 | 1011.5 |
| 20260905123006 | 75 | 229 | 0.0 | 0.0 | 0.00 | 0.07 | 0.00 | 78 | 1011.5 |
| 20260905121527 | 73 | 234 | 0.0 | 0.0 | 0.00 | 0.07 | 0.00 | 81 | 1011.6 |
| 20260905120054 | 72 | 234 | 0.0 | 0.0 | 0.00 | 0.07 | 0.00 | 84 | 1011.6 |
| 20260905114517 | 70 | 234 | 0.0 | 0.0 | 0.00 | 0.07 | 0.00 | 85 | 1011.4 |